createdAt,value
2023-07-18T00:01:33.236Z,99740.66
2023-07-18T00:03:59.969Z,99747.91
2023-07-18T00:06:26.571Z,99747.34
2023-07-18T00:08:53.176Z,99744.75
2023-07-18T00:11:21.655Z,99752.25
2023-07-18T00:13:48.357Z,99742.94
2023-07-18T00:16:14.928Z,99734.63
2023-07-18T00:18:41.999Z,99733.28
2023-07-18T00:21:08.734Z,99741.75
2023-07-18T00:23:35.412Z,99745.50
2023-07-18T00:26:01.959Z,99742.44
2023-07-18T00:28:29.513Z,99739.84
2023-07-18T00:30:56.233Z,99738.00
2023-07-18T00:33:23.756Z,99739.13
2023-07-18T00:35:50.480Z,99734.25
2023-07-18T00:38:17.541Z,99732.44
2023-07-18T00:40:44.152Z,99734.50
2023-07-18T00:43:15.991Z,99733.19
2023-07-18T00:45:46.338Z,99738.06
2023-07-18T00:48:13.073Z,99741.22
2023-07-18T00:50:39.763Z,99729.22
2023-07-18T00:53:07.185Z,99729.94
2023-07-18T00:55:33.994Z,99726.91
2023-07-18T00:58:04.433Z,99715.06
2023-07-18T01:00:31.092Z,99724.06
2023-07-18T01:02:57.741Z,99715.94
2023-07-18T01:05:24.579Z,99720.16
2023-07-18T01:07:51.586Z,99720.75
2023-07-18T01:10:26.387Z,99715.34
2023-07-18T01:12:56.187Z,99715.75
2023-07-18T01:15:25.097Z,99717.47
2023-07-18T01:17:52.584Z,99705.75
2023-07-18T01:20:27.997Z,99710.16
2023-07-18T01:22:59.909Z,99715.94
2023-07-18T01:25:27.721Z,99711.47
2023-07-18T01:27:57.250Z,99720.28
2023-07-18T01:30:27.224Z,99713.81
2023-07-18T01:32:55.037Z,99709.63
2023-07-18T01:35:26.079Z,99696.19
2023-07-18T01:37:55.909Z,99702.00
2023-07-18T01:40:23.962Z,99696.00
2023-07-18T01:42:53.887Z,99693.13
2023-07-18T01:45:22.560Z,99690.81
2023-07-18T01:47:51.151Z,99698.50
2023-07-18T01:50:19.358Z,99701.50
2023-07-18T01:52:48.186Z,99697.50
2023-07-18T01:55:15.884Z,99700.84
2023-07-18T01:57:45.720Z,99705.66
2023-07-18T02:00:19.823Z,99696.34
2023-07-18T02:02:49.945Z,99701.84
2023-07-18T02:05:25.217Z,99706.16
2023-07-18T02:07:55.437Z,99709.00
2023-07-18T02:10:22.838Z,99703.50
2023-07-18T02:12:52.398Z,99702.66
2023-07-18T02:15:20.778Z,99702.16
2023-07-18T02:17:48.473Z,99705.16
2023-07-18T02:20:15.653Z,99705.31
2023-07-18T02:22:45.944Z,99700.31
2023-07-18T02:25:16.225Z,99703.97
2023-07-18T02:27:42.821Z,99701.31
2023-07-18T02:30:12.634Z,99695.16
2023-07-18T02:32:40.862Z,99695.78
2023-07-18T02:35:09.943Z,99693.47
2023-07-18T02:37:37.906Z,99692.13
2023-07-18T02:40:10.280Z,99698.13
2023-07-18T02:42:39.122Z,99696.31
2023-07-18T02:45:08.010Z,99689.47
2023-07-18T02:47:34.828Z,99688.28
2023-07-18T02:50:01.636Z,99690.94
2023-07-18T02:52:28.151Z,99694.63
2023-07-18T02:54:54.956Z,99698.41
2023-07-18T02:57:21.616Z,99697.78
2023-07-18T02:59:48.207Z,99694.91
2023-07-18T03:02:14.777Z,99700.03
2023-07-18T03:04:41.353Z,99701.69
2023-07-18T03:07:08.303Z,99698.91
2023-07-18T03:09:36.235Z,99710.88
2023-07-18T03:12:03.033Z,99705.69
2023-07-18T03:14:30.373Z,99708.69
2023-07-18T03:16:57.342Z,99708.50
2023-07-18T03:19:24.370Z,99710.81
2023-07-18T03:21:51.085Z,99705.06
2023-07-18T03:24:18.916Z,99709.81
2023-07-18T03:26:46.194Z,99709.31
2023-07-18T03:29:12.852Z,99707.47
2023-07-18T03:31:40.755Z,99704.31
2023-07-18T03:34:07.839Z,99701.81
2023-07-18T03:36:38.233Z,99698.25
2023-07-18T03:39:05.275Z,99705.53
2023-07-18T03:41:31.970Z,99700.69
2023-07-18T03:43:58.794Z,99694.53
2023-07-18T03:46:25.436Z,99687.88
2023-07-18T03:48:52.824Z,99695.63
2023-07-18T03:51:20.069Z,99694.38
2023-07-18T03:53:48.224Z,99695.63
2023-07-18T03:56:16.318Z,99696.78
2023-07-18T03:58:43.990Z,99684.09
2023-07-18T04:01:12.735Z,99689.81
2023-07-18T04:03:40.357Z,99687.97
2023-07-18T04:06:07.741Z,99697.41
2023-07-18T04:08:34.592Z,99688.25
2023-07-18T04:11:01.301Z,99691.19
2023-07-18T04:13:28.119Z,99684.38
2023-07-18T04:15:56.197Z,99684.66
2023-07-18T04:18:23.517Z,99690.94
2023-07-18T04:20:50.575Z,99685.44
2023-07-18T04:23:18.387Z,99686.09
2023-07-18T04:26:03.938Z,99679.25
2023-07-18T04:28:34.034Z,99684.50
2023-07-18T04:31:01.322Z,99693.00
2023-07-18T04:33:28.940Z,99682.41
2023-07-18T04:35:55.447Z,99681.59
2023-07-18T04:38:21.955Z,99681.78
2023-07-18T04:40:49.206Z,99680.25
2023-07-18T04:43:16.050Z,99691.09
2023-07-18T04:45:46.465Z,99688.19
2023-07-18T04:48:15.331Z,99682.28
2023-07-18T04:50:44.243Z,99679.44
2023-07-18T04:53:11.676Z,99688.56
2023-07-18T04:55:40.286Z,99691.06
2023-07-18T04:58:09.086Z,99687.38
2023-07-18T05:00:36.755Z,99684.59
2023-07-18T05:03:04.017Z,99686.50
2023-07-18T05:05:31.156Z,99685.00
2023-07-18T05:08:00.211Z,99680.00
2023-07-18T05:10:27.097Z,99673.34
2023-07-18T05:12:56.607Z,99675.34
2023-07-18T05:15:24.780Z,99670.84
2023-07-18T05:17:51.909Z,99677.34
2023-07-18T05:20:19.877Z,99666.50
2023-07-18T05:22:46.921Z,99669.84
2023-07-18T05:25:16.226Z,99659.97
2023-07-18T05:27:43.589Z,99665.44
2023-07-18T05:30:20.585Z,99666.47
2023-07-18T05:32:52.377Z,99672.19
2023-07-18T05:35:18.942Z,99666.19
2023-07-18T05:37:46.079Z,99665.50
2023-07-18T05:40:13.465Z,99673.38
2023-07-18T05:42:43.585Z,99672.50
2023-07-18T05:45:10.673Z,99668.59
2023-07-18T05:47:39.792Z,99672.06
2023-07-18T05:50:08.053Z,99666.66
2023-07-18T05:52:35.603Z,99660.88
2023-07-18T05:55:05.156Z,99664.47
2023-07-18T05:57:31.955Z,99660.47
2023-07-18T05:59:58.558Z,99661.81
2023-07-18T06:02:25.153Z,99663.50
2023-07-18T06:04:52.040Z,99666.56
2023-07-18T06:07:18.584Z,99661.47
2023-07-18T06:09:45.211Z,99661.28
2023-07-18T06:12:13.480Z,99649.72
2023-07-18T06:14:40.395Z,99646.63
2023-07-18T06:17:07.331Z,99643.50
2023-07-18T06:19:34.050Z,99645.59
2023-07-18T06:22:00.678Z,99639.88
2023-07-18T06:24:27.305Z,99642.25
2023-07-18T06:26:53.986Z,99642.25
2023-07-18T06:29:21.749Z,99631.03
2023-07-18T06:31:49.859Z,99616.03
2023-07-18T06:34:18.447Z,99620.78
2023-07-18T06:36:46.883Z,99615.09
2023-07-18T06:39:15.054Z,99617.09
2023-07-18T06:41:42.285Z,99620.97
2023-07-18T06:44:10.163Z,99617.34
2023-07-18T06:46:37.278Z,99618.16
2023-07-18T06:49:04.216Z,99612.59
2023-07-18T06:51:30.839Z,99605.31
2023-07-18T06:53:57.387Z,99613.56
2023-07-18T06:56:24.514Z,99600.84
2023-07-18T06:58:51.278Z,99612.56
2023-07-18T07:01:18.292Z,99603.75
2023-07-18T07:03:45.291Z,99607.53
2023-07-18T07:06:14.293Z,99604.47
2023-07-18T07:08:40.963Z,99594.88
2023-07-18T07:11:09.537Z,99609.06
2023-07-18T07:13:37.586Z,99601.88
2023-07-18T07:16:05.632Z,99608.69
2023-07-18T07:18:32.700Z,99603.16
2023-07-18T07:21:00.634Z,99593.81
2023-07-18T07:23:27.466Z,99601.63
2023-07-18T07:25:54.088Z,99594.88
2023-07-18T07:28:20.836Z,99590.09
2023-07-18T07:30:47.453Z,99601.25
2023-07-18T07:33:14.144Z,99596.88
2023-07-18T07:35:40.855Z,99602.75
2023-07-18T07:38:07.997Z,99594.84
2023-07-18T07:40:34.737Z,99597.09
2023-07-18T07:43:01.316Z,99599.16
2023-07-18T07:45:28.042Z,99590.34
2023-07-18T07:47:54.738Z,99589.13
2023-07-18T07:50:21.316Z,99581.06
2023-07-18T07:52:47.947Z,99580.84
2023-07-18T07:55:14.982Z,99582.63
2023-07-18T07:57:42.311Z,99576.41
2023-07-18T08:00:09.731Z,99571.69
2023-07-18T08:02:36.293Z,99578.06
2023-07-18T08:05:03.111Z,99571.31
2023-07-18T08:07:30.181Z,99575.69
2023-07-18T08:09:56.800Z,99563.47
2023-07-18T08:12:23.386Z,99570.38
2023-07-18T08:14:50.293Z,99555.75
2023-07-18T08:17:18.236Z,99557.69
2023-07-18T08:19:45.033Z,99563.41
2023-07-18T08:22:11.764Z,99556.28
2023-07-18T08:24:40.525Z,99552.34
2023-07-18T08:27:07.990Z,99548.66
2023-07-18T08:29:36.529Z,99536.91
2023-07-18T08:32:04.433Z,99538.34
2023-07-18T08:34:31.014Z,99549.63
2023-07-18T08:36:57.590Z,99546.47
2023-07-18T08:39:24.104Z,99538.03
2023-07-18T08:41:51.202Z,99541.19
2023-07-18T08:44:18.954Z,99533.91
2023-07-18T08:46:47.887Z,99540.41
2023-07-18T08:49:18.264Z,99531.00
2023-07-18T08:51:46.858Z,99537.78
2023-07-18T08:54:14.306Z,99531.78
2023-07-18T08:56:43.921Z,99519.06
2023-07-18T08:59:12.266Z,99515.53
2023-07-18T09:01:48.940Z,99510.13
2023-07-18T09:04:15.908Z,99519.06
2023-07-18T09:06:50.755Z,99513.63
2023-07-18T09:09:19.268Z,99501.63
2023-07-18T09:12:05.684Z,99498.97
2023-07-18T09:14:35.405Z,99480.75
2023-07-18T09:17:06.092Z,99475.53
2023-07-18T09:19:49.637Z,99469.41
2023-07-18T09:22:18.335Z,99464.56
2023-07-18T09:24:48.792Z,99459.97
2023-07-18T09:27:19.507Z,99459.50
2023-07-18T09:29:49.405Z,99456.16
2023-07-18T09:32:19.251Z,99446.63
2023-07-18T09:35:00.369Z,99445.25
2023-07-18T09:37:28.289Z,99446.38
2023-07-18T09:39:55.943Z,99443.84
2023-07-18T09:42:25.532Z,99454.31
2023-07-18T09:44:53.536Z,99442.94
2023-07-18T09:47:21.336Z,99435.72
2023-07-18T09:49:48.256Z,99443.94
2023-07-18T09:52:17.241Z,99448.25
2023-07-18T09:54:45.231Z,99454.69
2023-07-18T09:57:14.111Z,99464.78
2023-07-18T09:59:41.278Z,99461.00
2023-07-18T10:02:12.141Z,99459.84
2023-07-18T10:04:39.892Z,99458.03
2023-07-18T10:07:10.532Z,99461.38
2023-07-18T10:09:39.394Z,99485.22
2023-07-18T10:12:08.620Z,99476.72
2023-07-18T10:15:00.922Z,99469.34
2023-07-18T10:17:36.335Z,99470.03
2023-07-18T10:20:13.160Z,99470.38
2023-07-18T10:22:58.585Z,99483.16
2023-07-18T10:25:31.078Z,99490.38
2023-07-18T10:28:01.039Z,99479.38
2023-07-18T10:30:42.754Z,99486.63
2023-07-18T10:33:09.999Z,99490.50
2023-07-18T10:35:42.730Z,99490.00
2023-07-18T10:38:09.549Z,99497.81
2023-07-18T10:40:43.938Z,99496.22
2023-07-18T10:43:18.013Z,99472.97
2023-07-18T10:45:45.974Z,99427.22
2023-07-18T10:48:17.554Z,99403.47
2023-07-18T10:50:47.346Z,99416.09
2023-07-18T10:53:20.159Z,99390.31
2023-07-18T10:55:48.232Z,99382.03
2023-07-18T10:58:19.806Z,99385.25
2023-07-18T11:00:49.415Z,99386.53
2023-07-18T11:03:21.106Z,99374.75
2023-07-18T11:05:52.619Z,99378.72
2023-07-18T11:08:29.750Z,99381.38
2023-07-18T11:11:00.304Z,99382.13
2023-07-18T11:13:30.272Z,99363.72
2023-07-18T11:16:10.475Z,99345.50
2023-07-18T11:18:43.406Z,99330.31
2023-07-18T11:21:12.584Z,99323.81
2023-07-18T11:23:41.668Z,99325.44
2023-07-18T11:26:13.984Z,99358.91
2023-07-18T11:28:44.756Z,99363.31
2023-07-18T11:31:42.000Z,99367.78
2023-07-18T11:34:10.342Z,99366.28
2023-07-18T11:36:40.948Z,99381.38
2023-07-18T11:39:23.437Z,99379.00
2023-07-18T11:41:53.256Z,99380.03
2023-07-18T11:44:27.890Z,99371.88
2023-07-18T11:46:56.015Z,99369.69
2023-07-18T11:49:38.754Z,99357.63
2023-07-18T11:52:09.150Z,99351.72
2023-07-18T11:54:36.866Z,99337.84
2023-07-18T11:57:05.242Z,99334.78
2023-07-18T11:59:32.457Z,99339.66
2023-07-18T12:01:59.048Z,99332.78
2023-07-18T12:04:25.593Z,99331.72
2023-07-18T12:06:52.245Z,99333.00
2023-07-18T12:09:18.824Z,99313.66
2023-07-18T12:11:45.518Z,99311.56
2023-07-18T12:14:12.236Z,99309.91
2023-07-18T12:16:39.809Z,99307.16
2023-07-18T12:19:06.702Z,99291.81
2023-07-18T12:21:33.329Z,99294.84
2023-07-18T12:23:59.831Z,99292.50
2023-07-18T12:26:26.389Z,99290.09
2023-07-18T12:28:55.220Z,99272.59
2023-07-18T12:31:22.161Z,99256.13
2023-07-18T12:33:48.921Z,99252.47
2023-07-18T12:36:15.521Z,99255.41
2023-07-18T12:38:42.049Z,99260.84
2023-07-18T12:41:09.547Z,99261.47
2023-07-18T12:43:36.123Z,99253.09
2023-07-18T12:46:02.739Z,99255.91
2023-07-18T12:48:29.230Z,99253.34
2023-07-18T12:50:55.790Z,99245.50
2023-07-18T12:53:22.276Z,99237.06
2023-07-18T12:55:48.928Z,99233.69
2023-07-18T12:58:15.458Z,99217.28
2023-07-18T13:00:42.184Z,99212.59
2023-07-18T13:03:08.939Z,99196.28
2023-07-18T13:05:35.537Z,99199.28
2023-07-18T13:08:02.080Z,99202.84
2023-07-18T13:10:28.687Z,99189.59
2023-07-18T13:12:55.282Z,99191.75
2023-07-18T13:15:22.543Z,99203.88
2023-07-18T13:17:49.515Z,99197.41
2023-07-18T13:20:17.088Z,99201.19
2023-07-18T13:22:43.840Z,99202.78
2023-07-18T13:25:11.160Z,99205.78
2023-07-18T13:27:39.799Z,99200.84
2023-07-18T13:30:08.552Z,99201.78
2023-07-18T13:32:35.171Z,99201.22
2023-07-18T13:35:01.949Z,99199.81
2023-07-18T13:37:28.518Z,99197.69
2023-07-18T13:39:55.188Z,99193.84
2023-07-18T13:42:21.757Z,99193.16
2023-07-18T13:47:19.507Z,99178.50
2023-07-18T13:52:15.552Z,99175.31
2023-07-18T13:54:42.355Z,99182.13
2023-07-18T13:57:08.903Z,99174.09
2023-07-18T13:59:35.444Z,99166.34
2023-07-18T14:02:02.041Z,99155.31
2023-07-18T14:04:28.903Z,99160.66
2023-07-18T14:06:55.480Z,99146.94
2023-07-18T14:09:22.640Z,99163.22
2023-07-18T14:11:49.432Z,99158.38
2023-07-18T14:14:15.966Z,99152.16
2023-07-18T14:16:42.495Z,99147.53
2023-07-18T14:19:09.166Z,99145.63
2023-07-18T14:21:35.782Z,99136.84
2023-07-18T14:24:02.330Z,99140.13
2023-07-18T14:26:28.921Z,99131.34
2023-07-18T14:28:55.486Z,99126.38
2023-07-18T14:31:22.263Z,99125.53
2023-07-18T14:34:04.759Z,99126.97
2023-07-18T14:36:32.603Z,99121.69
2023-07-18T14:38:59.166Z,99120.31
2023-07-18T14:41:25.690Z,99116.28
2023-07-18T14:43:52.194Z,99112.63
2023-07-18T14:46:19.105Z,99095.75
2023-07-18T14:48:45.870Z,99095.31
2023-07-18T14:51:12.476Z,99089.97
2023-07-18T14:53:38.997Z,99096.16
2023-07-18T14:56:05.540Z,99084.63
2023-07-18T14:58:31.999Z,99085.38
2023-07-18T15:00:58.666Z,99071.94
2023-07-18T15:03:26.399Z,99081.53
2023-07-18T15:05:53.032Z,99080.69
2023-07-18T15:08:19.555Z,99073.09
2023-07-18T15:10:46.320Z,99067.81
2023-07-18T15:13:12.848Z,99074.59
2023-07-18T15:15:41.147Z,99067.94
2023-07-18T15:18:08.021Z,99068.91
2023-07-18T15:20:34.554Z,99057.13
2023-07-18T15:23:01.148Z,99055.78
2023-07-18T15:25:32.214Z,99064.59
2023-07-18T15:28:00.562Z,99057.25
2023-07-18T15:30:28.547Z,99060.38
2023-07-18T15:32:55.309Z,99051.34
2023-07-18T15:35:22.106Z,99051.63
2023-07-18T15:37:48.728Z,99053.00
2023-07-18T15:40:15.234Z,99045.19
2023-07-18T15:42:42.312Z,99042.78
2023-07-18T15:45:09.728Z,99039.47
2023-07-18T15:47:36.374Z,99036.81
2023-07-18T15:50:03.089Z,99033.00
2023-07-18T15:52:29.672Z,99032.13
2023-07-18T15:54:56.327Z,99027.78
2023-07-18T15:57:23.161Z,99016.56
2023-07-18T15:59:49.886Z,99019.81
2023-07-18T16:02:16.533Z,99013.22
2023-07-18T16:04:43.193Z,99013.22
2023-07-18T16:07:09.856Z,99011.63
2023-07-18T16:09:56.664Z,99011.09
2023-07-18T16:12:23.370Z,99002.84
2023-07-18T16:14:50.258Z,98995.28
2023-07-18T16:17:17.146Z,98989.75
2023-07-18T16:19:45.640Z,98987.19
2023-07-18T16:22:12.392Z,98990.63
2023-07-18T16:24:40.639Z,98985.94
2023-07-18T16:27:07.484Z,98983.47
2023-07-18T16:29:34.330Z,98970.81
2023-07-18T16:32:01.024Z,98969.16
2023-07-18T16:34:27.645Z,98970.22
2023-07-18T16:36:56.356Z,98969.03
2023-07-18T16:39:22.920Z,98963.00
2023-07-18T16:41:49.494Z,98956.03
2023-07-18T16:44:16.415Z,98951.13
2023-07-18T16:46:44.379Z,98948.66
2023-07-18T16:49:10.976Z,98946.59
2023-07-18T16:51:37.485Z,98947.19
2023-07-18T16:54:04.223Z,98931.59
2023-07-18T16:56:30.961Z,98935.72
2023-07-18T16:58:57.716Z,98936.63
2023-07-18T17:01:24.234Z,98938.31
2023-07-18T17:03:50.987Z,98927.88
2023-07-18T17:06:17.830Z,98935.13
2023-07-18T17:08:44.669Z,98931.34
2023-07-18T17:11:11.251Z,98937.84
2023-07-18T17:13:38.163Z,98928.03
2023-07-18T17:16:05.344Z,98924.28
2023-07-18T17:18:31.869Z,98929.56
2023-07-18T17:20:58.948Z,98931.22
2023-07-18T17:23:25.532Z,98932.81
2023-07-18T17:25:52.162Z,98919.47
2023-07-18T17:28:18.671Z,98916.53
2023-07-18T17:30:45.190Z,98910.25
2023-07-18T17:33:12.098Z,98913.78
2023-07-18T17:35:39.883Z,98910.22
2023-07-18T17:38:06.838Z,98900.44
2023-07-18T17:40:33.416Z,98903.75
2023-07-18T17:43:05.349Z,98906.22
2023-07-18T17:45:32.397Z,98910.59
2023-07-18T17:47:59.656Z,98900.50
2023-07-18T17:50:26.354Z,98904.88
2023-07-18T17:52:52.919Z,98901.88
2023-07-18T17:55:19.489Z,98898.06
2023-07-18T17:57:46.047Z,98906.19
2023-07-18T18:00:13.143Z,98897.22
2023-07-18T18:02:40.030Z,98903.19
2023-07-18T18:05:35.531Z,98893.94
2023-07-18T18:08:06.013Z,98892.28
2023-07-18T18:10:32.800Z,98903.13
2023-07-18T18:12:59.398Z,98895.47
2023-07-18T18:15:27.785Z,98900.25
2023-07-18T18:17:55.429Z,98884.19
2023-07-18T18:20:22.210Z,98893.66
2023-07-18T18:22:48.735Z,98895.75
2023-07-18T18:25:16.164Z,98894.81
2023-07-18T18:27:43.961Z,98895.66
2023-07-18T18:30:12.221Z,98891.81
2023-07-18T18:32:38.902Z,98905.38
2023-07-18T18:35:09.534Z,98897.31
2023-07-18T18:37:39.486Z,98887.88
2023-07-18T18:40:06.851Z,98895.16
2023-07-18T18:42:34.695Z,98896.59
2023-07-18T18:45:01.453Z,98898.50
2023-07-18T18:47:28.098Z,98887.13
2023-07-18T18:49:54.875Z,98898.41
2023-07-18T18:52:21.509Z,98891.44
2023-07-18T18:54:48.021Z,98896.28
2023-07-18T18:57:15.374Z,98888.25
2023-07-18T18:59:44.618Z,98887.53
2023-07-18T19:02:14.764Z,98887.81
2023-07-18T19:04:42.921Z,98889.75
2023-07-18T19:07:09.516Z,98889.25
2023-07-18T19:09:36.271Z,98899.06
2023-07-18T19:12:03.040Z,98886.69
2023-07-18T19:14:29.642Z,98895.16
2023-07-18T19:16:56.317Z,98894.47
2023-07-18T19:19:22.805Z,98893.44
2023-07-18T19:21:49.325Z,98890.41
2023-07-18T19:24:15.869Z,98899.59
2023-07-18T19:26:42.623Z,98894.78
2023-07-18T19:29:10.069Z,98886.22
2023-07-18T19:31:36.584Z,98896.63
2023-07-18T19:34:03.283Z,98896.16
2023-07-18T19:36:29.892Z,98909.47
2023-07-18T19:38:56.453Z,98908.72
2023-07-18T19:41:24.324Z,98911.03
2023-07-18T19:43:51.066Z,98918.81
2023-07-18T19:46:17.748Z,98920.41
2023-07-18T19:48:44.308Z,98927.69
2023-07-18T19:51:10.843Z,98931.84
2023-07-18T19:53:37.741Z,98923.97
2023-07-18T19:56:04.599Z,98931.44
2023-07-18T19:58:31.199Z,98930.91
2023-07-18T20:00:58.239Z,98927.84
2023-07-18T20:03:24.935Z,98934.47
2023-07-18T20:05:51.710Z,98927.50
2023-07-18T20:08:18.426Z,98929.41
2023-07-18T20:10:45.066Z,98925.56
2023-07-18T20:13:11.613Z,98931.78
2023-07-18T20:15:38.265Z,98935.31
2023-07-18T20:18:05.149Z,98935.47
2023-07-18T20:20:31.958Z,98933.72
2023-07-18T20:22:58.609Z,98933.56
2023-07-18T20:25:25.508Z,98928.63
2023-07-18T20:27:52.218Z,98927.16
2023-07-18T20:30:21.039Z,98921.03
2023-07-18T20:32:48.334Z,98919.41
2023-07-18T20:35:15.681Z,98928.53
2023-07-18T20:37:42.542Z,98926.44
2023-07-18T20:40:11.154Z,98926.84
2023-07-18T20:42:38.404Z,98929.78
2023-07-18T20:45:05.850Z,98920.94
2023-07-18T20:47:32.495Z,98925.19
2023-07-18T20:49:59.127Z,98934.72
2023-07-18T20:52:25.822Z,98933.72
2023-07-18T20:54:52.542Z,98932.09
2023-07-18T20:57:19.083Z,98932.44
2023-07-18T20:59:45.660Z,98932.78
2023-07-18T21:02:12.370Z,98931.38
2023-07-18T21:04:38.977Z,98923.53
2023-07-18T21:07:05.825Z,98933.63
2023-07-18T21:09:32.498Z,98930.22
2023-07-18T21:11:59.179Z,98931.03
2023-07-18T21:14:25.710Z,98925.41
2023-07-18T21:16:52.253Z,98932.03
2023-07-18T21:19:20.004Z,98928.22
2023-07-18T21:21:46.589Z,98926.06
2023-07-18T21:24:15.126Z,98923.16
2023-07-18T21:26:42.009Z,98921.47
2023-07-18T21:29:08.594Z,98921.94
2023-07-18T21:31:35.137Z,98921.06
2023-07-18T21:34:01.989Z,98924.94
2023-07-18T21:36:28.590Z,98923.38
2023-07-18T21:38:55.098Z,98924.88
2023-07-18T21:41:23.002Z,98925.13
2023-07-18T21:43:49.635Z,98921.06
2023-07-18T21:46:16.390Z,98922.03
2023-07-18T21:48:43.127Z,98923.41
2023-07-18T21:51:09.698Z,98911.03
2023-07-18T21:53:36.319Z,98915.03
2023-07-18T21:56:03.843Z,98911.16
2023-07-18T21:58:30.511Z,98914.41
2023-07-18T22:00:57.066Z,98910.88
2023-07-18T22:03:23.753Z,98910.28
2023-07-18T22:05:50.298Z,98904.88
2023-07-18T22:08:16.868Z,98900.91
2023-07-18T22:10:43.556Z,98907.81
2023-07-18T22:13:10.262Z,98905.81
2023-07-18T22:15:36.822Z,98899.31
2023-07-18T22:18:15.866Z,98901.50
2023-07-18T22:20:50.341Z,98901.63
2023-07-18T22:23:16.826Z,98906.19
2023-07-18T22:25:43.333Z,98899.38
2023-07-18T22:28:10.741Z,98897.22
2023-07-18T22:30:37.263Z,98894.09
2023-07-18T22:33:04.150Z,98904.44
2023-07-18T22:35:30.774Z,98892.31
2023-07-18T22:37:57.953Z,98892.47
2023-07-18T22:40:24.493Z,98893.97
2023-07-18T22:42:50.995Z,98889.47
2023-07-18T22:45:17.514Z,98894.72
2023-07-18T22:47:44.068Z,98893.03
2023-07-18T22:50:11.286Z,98896.75
2023-07-18T22:52:37.780Z,98895.84
2023-07-18T22:55:04.801Z,98889.31
2023-07-18T22:57:31.332Z,98894.88
2023-07-18T22:59:58.002Z,98891.19
2023-07-18T23:02:24.764Z,98892.22
2023-07-18T23:04:51.588Z,98888.94
2023-07-18T23:07:18.165Z,98890.22
2023-07-18T23:09:44.700Z,98891.84
2023-07-18T23:12:12.471Z,98890.41
2023-07-18T23:14:39.171Z,98899.63
2023-07-18T23:17:05.999Z,98888.13
2023-07-18T23:19:32.693Z,98897.00
2023-07-18T23:21:59.297Z,98897.88
2023-07-18T23:24:25.982Z,98889.63
2023-07-18T23:26:52.601Z,98900.59
2023-07-18T23:29:19.086Z,98899.00
2023-07-18T23:31:45.600Z,98902.13
2023-07-18T23:34:12.143Z,98903.13
2023-07-18T23:36:38.618Z,98897.34
2023-07-18T23:39:06.586Z,98901.13
2023-07-18T23:41:33.115Z,98894.50
2023-07-18T23:43:59.584Z,98899.47
2023-07-18T23:46:26.224Z,98888.53
2023-07-18T23:48:52.930Z,98898.88
2023-07-18T23:51:19.954Z,98887.72
2023-07-18T23:53:46.851Z,98892.66
2023-07-18T23:56:13.418Z,98894.72
2023-07-18T23:58:39.949Z,98894.06
